createdAt,value
2023-02-25T00:01:33.616Z,1.9
2023-02-25T00:04:35.566Z,2
2023-02-25T00:07:37.536Z,2.1
2023-02-25T00:10:39.484Z,1.9
2023-02-25T00:13:41.451Z,2.4
2023-02-25T00:16:43.449Z,1.9
2023-02-25T00:19:45.353Z,2.3
2023-02-25T00:22:47.321Z,2.3
2023-02-25T00:25:49.270Z,2.5
2023-02-25T00:28:51.235Z,2.3
2023-02-25T00:31:53.321Z,2.1
2023-02-25T00:34:55.155Z,2.5
2023-02-25T00:38:04.058Z,2.5
2023-02-25T00:40:59.079Z,2.1
2023-02-25T00:44:01.064Z,3.1
2023-02-25T00:47:03.027Z,2.3
2023-02-25T00:50:04.996Z,3.1
2023-02-25T00:53:06.962Z,2.6
2023-02-25T00:56:08.896Z,3
2023-02-25T00:59:10.853Z,2.8
2023-02-25T01:02:12.828Z,2.9
2023-02-25T01:05:14.772Z,2.9
2023-02-25T01:08:16.735Z,3
2023-02-25T01:11:18.691Z,3.1
2023-02-25T01:14:20.666Z,2.3
2023-02-25T01:17:22.627Z,2.4
2023-02-25T01:20:24.592Z,3.4
2023-02-25T01:23:26.572Z,3.2
2023-02-25T01:26:28.509Z,3.1
2023-02-25T01:29:30.518Z,2.9
2023-02-25T01:32:32.547Z,3.6
2023-02-25T01:35:34.388Z,3.2
2023-02-25T01:38:36.361Z,3.4
2023-02-25T01:41:38.313Z,3.1
2023-02-25T01:44:40.289Z,3.3
2023-02-25T01:47:42.240Z,3.1
2023-02-25T01:50:44.181Z,3.3
2023-02-25T01:53:46.155Z,3.5
2023-02-25T01:56:48.108Z,3
2023-02-25T01:59:50.095Z,2.8
2023-02-25T02:02:52.074Z,3.9
2023-02-25T02:05:53.996Z,3.2
2023-02-25T02:08:55.950Z,3.1
2023-02-25T02:11:57.909Z,3
2023-02-25T02:14:59.872Z,3.2
2023-02-25T02:18:01.988Z,3.4
2023-02-25T02:21:03.777Z,2.9
2023-02-25T02:24:05.773Z,3.5
2023-02-25T02:27:07.725Z,3
2023-02-25T02:30:09.665Z,2.7
2023-02-25T02:33:11.627Z,2.8
2023-02-25T02:36:13.587Z,2.3
2023-02-25T02:39:15.574Z,2.6
2023-02-25T02:42:17.514Z,3.1
2023-02-25T02:45:19.484Z,3
2023-02-25T02:48:21.429Z,3.2
2023-02-25T02:51:23.393Z,2.8
2023-02-25T02:54:25.343Z,3.2
2023-02-25T02:57:27.311Z,3.1
2023-02-25T03:00:29.331Z,3
2023-02-25T03:03:31.257Z,2.5
2023-02-25T03:06:33.209Z,3.4
2023-02-25T03:09:35.169Z,3.2
2023-02-25T03:12:37.176Z,3.6
2023-02-25T03:15:39.248Z,2.9
2023-02-25T03:18:41.110Z,2.8
2023-02-25T03:21:43.061Z,3
2023-02-25T03:24:45.031Z,3
2023-02-25T03:27:47.169Z,3.1
2023-02-25T03:30:49.147Z,3.3
2023-02-25T03:33:51.061Z,2.7
2023-02-25T03:36:53.031Z,2.5
2023-02-25T03:39:54.992Z,3
2023-02-25T03:42:56.954Z,3.1
2023-02-25T03:45:58.969Z,2.5
2023-02-25T03:49:00.878Z,2.9
2023-02-25T03:52:02.815Z,2.7
2023-02-25T03:55:04.794Z,3.1
2023-02-25T03:58:06.746Z,2.9
2023-02-25T04:01:08.719Z,3.3
2023-02-25T04:04:10.659Z,2.7
2023-02-25T04:07:12.636Z,3.1
2023-02-25T04:10:14.591Z,2.7
2023-02-25T04:13:16.563Z,3.1
2023-02-25T04:16:18.500Z,2.8
2023-02-25T04:19:20.461Z,2.7
2023-02-25T04:22:22.432Z,3
2023-02-25T04:25:24.394Z,3.5
2023-02-25T04:28:26.365Z,3.3
2023-02-25T04:31:28.403Z,3.2
2023-02-25T04:34:30.302Z,3.6
2023-02-25T04:37:32.369Z,3.8
2023-02-25T04:40:34.224Z,3.5
2023-02-25T04:43:36.236Z,3.4
2023-02-25T04:46:38.237Z,3.2
2023-02-25T04:49:40.119Z,2.8
2023-02-25T04:52:42.083Z,3
2023-02-25T04:55:44.038Z,3.3
2023-02-25T04:58:46.004Z,3.7
2023-02-25T05:01:47.986Z,4.5
2023-02-25T05:04:50.065Z,3.3
2023-02-25T05:07:51.879Z,3.3
2023-02-25T05:10:53.856Z,2.8
2023-02-25T05:13:55.857Z,3.4
2023-02-25T05:16:57.763Z,3.4
2023-02-25T05:19:59.756Z,3.4
2023-02-25T05:23:01.674Z,3.8
2023-02-25T05:26:03.647Z,3.3
2023-02-25T05:29:05.603Z,2.9
2023-02-25T05:32:07.692Z,3.1
2023-02-25T05:35:09.534Z,2.9
2023-02-25T05:38:11.504Z,2.9
2023-02-25T05:41:13.485Z,3
2023-02-25T05:44:15.447Z,3.5
2023-02-25T05:47:17.377Z,2.9
2023-02-25T05:50:19.325Z,3
2023-02-25T05:53:21.291Z,3.3
2023-02-25T05:56:23.622Z,2.7
2023-02-25T05:59:25.211Z,3
2023-02-25T06:02:27.227Z,2.7
2023-02-25T06:05:29.133Z,2.6
2023-02-25T06:08:31.088Z,2.5
2023-02-25T06:11:33.037Z,2.7
2023-02-25T06:14:35.017Z,2.6
2023-02-25T06:17:36.973Z,2.4
2023-02-25T06:20:38.929Z,3
2023-02-25T06:23:40.866Z,3.4
2023-02-25T06:26:42.857Z,2.8
2023-02-25T06:29:44.795Z,3.4
2023-02-25T06:32:46.819Z,3.2
2023-02-25T06:35:48.704Z,3.2
2023-02-25T06:38:50.673Z,3.1
2023-02-25T06:41:52.649Z,2.6
2023-02-25T06:44:54.628Z,3.4
2023-02-25T06:47:56.553Z,3.9
2023-02-25T06:50:58.525Z,3.8
2023-02-25T06:54:00.487Z,3.6
2023-02-25T06:57:02.515Z,3.7
2023-02-25T07:00:04.502Z,3.8
2023-02-25T07:03:06.441Z,3.6
2023-02-25T07:06:08.496Z,3.8
2023-02-25T07:09:10.412Z,3.2
2023-02-25T07:12:12.395Z,3.6
2023-02-25T07:15:14.355Z,3.5
2023-02-25T07:18:16.329Z,4.4
2023-02-25T07:21:18.283Z,3.6
2023-02-25T07:24:20.230Z,3.3
2023-02-25T07:27:22.203Z,3.3
2023-02-25T07:30:24.153Z,3.2
2023-02-25T07:33:26.119Z,4
2023-02-25T07:36:28.067Z,3.8
2023-02-25T07:39:30.029Z,3.6
2023-02-25T07:42:31.978Z,3.5
2023-02-25T07:45:33.945Z,4.3
2023-02-25T07:48:35.908Z,3.6
2023-02-25T07:51:37.867Z,3.5
2023-02-25T07:54:39.847Z,3.4
2023-02-25T07:57:41.803Z,3.8
2023-02-25T08:00:43.764Z,4.1
2023-02-25T08:03:45.757Z,4.2
2023-02-25T08:06:47.696Z,4.7
2023-02-25T08:09:49.658Z,5
2023-02-25T08:12:51.611Z,4.1
2023-02-25T08:15:53.597Z,4.7
2023-02-25T08:18:55.755Z,4.2
2023-02-25T08:21:57.498Z,4
2023-02-25T08:24:59.478Z,3.7
2023-02-25T08:28:01.430Z,3.6
2023-02-25T08:31:03.462Z,4.2
2023-02-25T08:34:05.357Z,3.7
2023-02-25T08:37:07.308Z,5
2023-02-25T08:40:09.286Z,4.1
2023-02-25T08:43:11.240Z,4.4
2023-02-25T08:46:13.208Z,4.1
2023-02-25T08:49:15.147Z,4.1
2023-02-25T08:52:17.116Z,3.8
2023-02-25T08:55:19.087Z,4.4
2023-02-25T08:58:21.050Z,4.4
2023-02-25T09:01:23.557Z,4.6
2023-02-25T09:04:24.984Z,4.7
2023-02-25T09:07:26.926Z,5.5
2023-02-25T09:10:32.363Z,4.6
2023-02-25T09:13:30.840Z,4.5
2023-02-25T09:16:32.850Z,4.6
2023-02-25T09:19:34.780Z,4.2
2023-02-25T09:22:36.742Z,4.7
2023-02-25T09:25:38.714Z,4
2023-02-25T09:28:40.721Z,3.8
2023-02-25T09:31:42.805Z,3.6
2023-02-25T09:34:44.627Z,3.6
2023-02-25T09:37:46.567Z,4
2023-02-25T09:40:48.518Z,3.6
2023-02-25T09:43:50.572Z,3.9
2023-02-25T09:46:52.441Z,3.8
2023-02-25T09:49:54.415Z,3
2023-02-25T09:52:56.411Z,3.8
2023-02-25T09:55:58.558Z,3.7
2023-02-25T09:59:00.294Z,3.3
2023-02-25T10:02:02.344Z,3.4
2023-02-25T10:05:04.235Z,3.4
2023-02-25T10:08:06.214Z,3.8
2023-02-25T10:11:08.174Z,3.7
2023-02-25T10:14:10.116Z,3.1
2023-02-25T10:17:12.089Z,3.1
2023-02-25T10:20:14.073Z,3.8
2023-02-25T10:23:16.012Z,2.7
2023-02-25T10:26:17.968Z,2.6
2023-02-25T10:29:19.937Z,3.1
2023-02-25T10:32:22.060Z,3
2023-02-25T10:35:23.862Z,3.5
2023-02-25T10:38:25.823Z,2.6
2023-02-25T10:41:27.800Z,3.1
2023-02-25T10:44:29.760Z,2.7
2023-02-25T10:47:31.707Z,3.2
2023-02-25T10:50:44.771Z,3.1
2023-02-25T10:53:35.641Z,2.4
2023-02-25T10:56:37.610Z,3.6
2023-02-25T10:59:39.582Z,3
2023-02-25T11:02:41.651Z,2.7
2023-02-25T11:05:43.517Z,2.6
2023-02-25T11:08:45.487Z,2.8
2023-02-25T11:11:47.415Z,2.9
2023-02-25T11:14:49.404Z,3
2023-02-25T11:17:51.343Z,3.2
2023-02-25T11:20:53.347Z,2.8
2023-02-25T11:23:55.301Z,3.5
2023-02-25T11:26:57.265Z,3.3
2023-02-25T11:29:59.258Z,3.5
2023-02-25T11:33:01.200Z,3.3
2023-02-25T11:36:03.181Z,3.1
2023-02-25T11:39:05.122Z,3.1
2023-02-25T11:42:07.093Z,2.6
2023-02-25T11:45:09.052Z,2.2
2023-02-25T11:48:11.008Z,1.3
2023-02-25T11:51:12.979Z,1.1
2023-02-25T11:54:14.949Z,0.9
2023-02-25T11:57:16.898Z,0.9
2023-02-25T12:00:18.850Z,0.9
2023-02-25T12:03:20.847Z,1.1
2023-02-25T12:06:22.984Z,0.9
2023-02-25T12:09:24.784Z,1.6
2023-02-25T12:12:26.697Z,0.9
2023-02-25T12:15:28.684Z,1
2023-02-25T12:18:30.617Z,1
2023-02-25T12:21:32.829Z,1.1
2023-02-25T12:24:34.548Z,1.6
2023-02-25T12:27:36.515Z,1.2
2023-02-25T12:30:38.522Z,1.5
2023-02-25T12:33:40.428Z,1.4
2023-02-25T12:36:42.417Z,1.7
2023-02-25T12:39:44.367Z,1.3
2023-02-25T12:42:46.342Z,1.2
2023-02-25T12:45:48.409Z,1.3
2023-02-25T12:48:50.268Z,1
2023-02-25T12:51:52.238Z,1
2023-02-25T12:54:54.196Z,1
2023-02-25T12:57:56.175Z,1.1
2023-02-25T13:00:58.149Z,0.9
2023-02-25T13:04:00.132Z,1
2023-02-25T13:07:02.057Z,1.1
2023-02-25T13:10:04.043Z,0.9
2023-02-25T13:13:06.024Z,0.6
2023-02-25T13:16:08.026Z,0.8
2023-02-25T13:19:09.926Z,0.6
2023-02-25T13:22:11.897Z,0.7
2023-02-25T13:25:13.866Z,0.7
2023-02-25T13:28:15.827Z,0.7
2023-02-25T13:31:17.786Z,1
2023-02-25T13:34:19.777Z,1
2023-02-25T13:37:21.729Z,0.9
2023-02-25T13:40:26.048Z,1.1
2023-02-25T13:43:25.661Z,0.9
2023-02-25T13:46:27.636Z,1
2023-02-25T13:49:29.598Z,1.2
2023-02-25T13:52:31.582Z,0.8
2023-02-25T13:55:33.630Z,0.9
2023-02-25T13:58:35.487Z,1.2
2023-02-25T14:01:37.481Z,0.8
2023-02-25T14:04:39.414Z,0.9
2023-02-25T14:07:41.387Z,0.8
2023-02-25T14:10:43.343Z,1
2023-02-25T14:13:45.315Z,1.2
2023-02-25T14:16:47.273Z,1.1
2023-02-25T14:19:49.244Z,0.8
2023-02-25T14:22:51.198Z,1
2023-02-25T14:25:53.161Z,0.9
2023-02-25T14:28:55.097Z,1.4
2023-02-25T14:31:57.162Z,0.8
2023-02-25T14:34:59.034Z,1.2
2023-02-25T14:38:00.982Z,1.2
2023-02-25T14:41:02.964Z,1.6
2023-02-25T14:44:04.891Z,1.8
2023-02-25T14:47:06.973Z,1.9
2023-02-25T14:50:08.880Z,1.3
2023-02-25T14:53:10.793Z,1.1
2023-02-25T14:56:12.739Z,1
2023-02-25T14:59:14.712Z,1.1
2023-02-25T15:02:16.684Z,1.2
2023-02-25T15:05:18.637Z,1.2
2023-02-25T15:08:20.587Z,1.2
2023-02-25T15:11:22.767Z,1.3
2023-02-25T15:14:24.506Z,1.1
2023-02-25T15:17:26.505Z,1.4
2023-02-25T15:20:28.434Z,0.9
2023-02-25T15:23:30.390Z,1.3
2023-02-25T15:26:32.348Z,1.2
2023-02-25T15:29:34.317Z,1.2
2023-02-25T15:32:36.275Z,1.3
2023-02-25T15:35:38.232Z,1.2
2023-02-25T15:38:40.183Z,1.6
2023-02-25T15:41:42.166Z,1.1
2023-02-25T15:44:44.136Z,1.1
2023-02-25T15:47:46.075Z,1.4
2023-02-25T15:50:48.085Z,1.2
2023-02-25T15:53:50.026Z,1.5
2023-02-25T15:56:51.976Z,1.5
2023-02-25T15:59:53.962Z,1.1
2023-02-25T16:02:56.044Z,1.1
2023-02-25T16:05:57.893Z,1.4
2023-02-25T16:08:59.846Z,1.5
2023-02-25T16:12:01.877Z,1.4
2023-02-25T16:15:03.758Z,1.6
2023-02-25T16:18:05.727Z,1.1
2023-02-25T16:21:07.686Z,1.2
2023-02-25T16:24:09.646Z,1.2
2023-02-25T16:27:11.605Z,1
2023-02-25T16:30:13.576Z,1.1
2023-02-25T16:33:15.540Z,0.9
2023-02-25T16:36:17.499Z,0.9
2023-02-25T16:39:19.472Z,1
2023-02-25T16:42:21.462Z,1
2023-02-25T16:45:23.568Z,1.4
2023-02-25T16:48:25.366Z,0.9
2023-02-25T16:51:27.311Z,1.3
2023-02-25T16:54:29.283Z,1.2
2023-02-25T16:57:31.267Z,1.2
2023-02-25T17:00:33.228Z,0.9
2023-02-25T17:03:35.235Z,1
2023-02-25T17:06:37.129Z,1.1
2023-02-25T17:09:39.067Z,0.9
2023-02-25T17:12:41.051Z,0.9
2023-02-25T17:15:43.059Z,1.1
2023-02-25T17:18:45.015Z,1
2023-02-25T17:21:46.962Z,1.2
2023-02-25T17:24:48.918Z,1.3
2023-02-25T17:27:50.887Z,0.9
2023-02-25T17:30:52.914Z,1.1
2023-02-25T17:33:54.804Z,1.5
2023-02-25T17:36:56.768Z,0.9
2023-02-25T17:39:58.736Z,1.1
2023-02-25T17:43:00.690Z,0.9
2023-02-25T17:46:02.658Z,0.9
2023-02-25T17:49:04.606Z,1.2
2023-02-25T17:52:06.561Z,0.8
2023-02-25T17:55:08.521Z,0.8
2023-02-25T17:58:10.559Z,0.9
2023-02-25T18:01:12.471Z,1.1
2023-02-25T18:04:14.422Z,0.9
2023-02-25T18:07:16.368Z,1.4
2023-02-25T18:10:18.329Z,1.1
2023-02-25T18:13:20.305Z,1.1
2023-02-25T18:16:22.670Z,1.1
2023-02-25T18:19:24.234Z,1.2
2023-02-25T18:22:26.210Z,1
2023-02-25T18:25:28.192Z,1.1
2023-02-25T18:28:30.132Z,1.1
2023-02-25T18:31:32.221Z,0.9
2023-02-25T18:34:34.038Z,1.1
2023-02-25T18:37:36.011Z,1.3
2023-02-25T18:40:37.983Z,1.4
2023-02-25T18:43:39.980Z,1.3
2023-02-25T18:46:41.992Z,1.2
2023-02-25T18:49:43.860Z,1.2
2023-02-25T18:52:45.825Z,1.4
2023-02-25T18:55:47.802Z,1.3
2023-02-25T18:58:49.756Z,1.4
2023-02-25T19:01:51.845Z,1.4
2023-02-25T19:04:53.671Z,1.2
2023-02-25T19:07:55.644Z,1.3
2023-02-25T19:10:57.611Z,1.2
2023-02-25T19:13:59.579Z,1
2023-02-25T19:17:01.567Z,1.4
2023-02-25T19:20:03.503Z,1.2
2023-02-25T19:23:05.448Z,1.4
2023-02-25T19:26:07.447Z,1.2
2023-02-25T19:29:09.380Z,1.1
2023-02-25T19:32:11.353Z,1.5
2023-02-25T19:35:13.279Z,1.5
2023-02-25T19:38:15.237Z,1.5
2023-02-25T19:41:17.245Z,1.6
2023-02-25T19:44:19.183Z,1.2
2023-02-25T19:47:21.148Z,1.9
2023-02-25T19:50:23.096Z,2.1
2023-02-25T19:53:25.070Z,2.5
2023-02-25T19:56:27.146Z,2.2
2023-02-25T19:59:28.994Z,1.9
2023-02-25T20:02:30.944Z,2.3
2023-02-25T20:05:32.928Z,2.2
2023-02-25T20:08:34.867Z,2.2
2023-02-25T20:11:36.834Z,1.8
2023-02-25T20:14:38.791Z,2
2023-02-25T20:17:40.815Z,2.2
2023-02-25T20:20:42.838Z,2.1
2023-02-25T20:23:44.723Z,1.9
2023-02-25T20:26:46.688Z,1.6
2023-02-25T20:29:48.698Z,1.5
2023-02-25T20:32:50.614Z,1.9
2023-02-25T20:35:52.584Z,1.6
2023-02-25T20:38:54.666Z,1.6
2023-02-25T20:41:56.501Z,1.7
2023-02-25T20:44:58.466Z,1.5
2023-02-25T20:48:00.405Z,2.2
2023-02-25T20:51:02.385Z,1.9
2023-02-25T20:54:04.316Z,1.5
2023-02-25T20:57:06.291Z,1.6
2023-02-25T21:00:08.236Z,3.7
2023-02-25T21:03:10.224Z,1.9
2023-02-25T21:06:12.164Z,1.7
2023-02-25T21:09:14.145Z,2
2023-02-25T21:12:16.126Z,1.8
2023-02-25T21:15:18.060Z,1.5
2023-02-25T21:18:20.097Z,1.5
2023-02-25T21:21:21.997Z,1.5
2023-02-25T21:24:24.027Z,1.5
2023-02-25T21:27:25.971Z,1.7
2023-02-25T21:30:28.110Z,1.6
2023-02-25T21:33:29.900Z,1.6
2023-02-25T21:36:31.857Z,1.6
2023-02-25T21:39:33.838Z,1.5
2023-02-25T21:42:35.814Z,1.3
2023-02-25T21:45:37.783Z,1.8
2023-02-25T21:48:39.714Z,1.7
2023-02-25T21:51:41.666Z,1.7
2023-02-25T21:54:43.641Z,1.9
2023-02-25T21:57:45.601Z,1.8
2023-02-25T22:00:47.576Z,1.9
2023-02-25T22:03:49.525Z,1.9
2023-02-25T22:06:51.505Z,1.9
2023-02-25T22:09:53.474Z,2
2023-02-25T22:12:55.455Z,1.9
2023-02-25T22:15:57.409Z,2.4
2023-02-25T22:18:59.358Z,2
2023-02-25T22:22:01.325Z,1.9
2023-02-25T22:25:03.462Z,1.9
2023-02-25T22:28:05.430Z,2.3
2023-02-25T22:31:07.335Z,2
2023-02-25T22:34:09.211Z,2.5
2023-02-25T22:37:11.191Z,2.3
2023-02-25T22:40:13.145Z,2.4
2023-02-25T22:43:15.094Z,2.5
2023-02-25T22:46:17.132Z,1.7
2023-02-25T22:49:19.034Z,1.8
2023-02-25T22:52:21.011Z,1.7
2023-02-25T22:55:22.991Z,1.7
2023-02-25T22:58:24.944Z,1.9
2023-02-25T23:01:26.988Z,2.1
2023-02-25T23:04:28.846Z,2
2023-02-25T23:07:30.826Z,2.1
2023-02-25T23:10:32.782Z,1.8
2023-02-25T23:13:34.741Z,2
2023-02-25T23:16:36.750Z,2
2023-02-25T23:19:38.665Z,1.6
2023-02-25T23:22:40.639Z,1.8
2023-02-25T23:25:42.617Z,1.9
2023-02-25T23:28:44.574Z,1.9
2023-02-25T23:31:46.592Z,2.3
2023-02-25T23:34:48.481Z,2.1
2023-02-25T23:37:50.505Z,2
2023-02-25T23:40:52.394Z,2
2023-02-25T23:43:54.361Z,2
2023-02-25T23:46:56.329Z,2.1
2023-02-25T23:49:58.291Z,2.2
2023-02-25T23:53:00.254Z,2.5
2023-02-25T23:56:02.226Z,2
2023-02-25T23:59:04.189Z,2
